Time;durP1;ratioP1;P1;durP2;ratioP2;P2;SDS_P1;SDS_P2;PMS_P1;PMS_P2;Temp;Humidity;BMP_temperature;BMP_pressure;BME280_temperature;BME280_humidity;BME280_pressure;Samples;Min_cycle;Max_cycle;Signal;HPM_P1;HPM_P2
2023/04/12 00:01:40;;;;;;;9.43;1.63;;;;;;;;;;5026523;28;20076;-69
2023/04/12 00:04:06;;;;;;;9.23;1.80;;;;;;;;;;5026345;28;20069;-70
2023/04/12 00:06:32;;;;;;;5.55;1.95;;;;;;;;;;5026774;28;20180;-70
2023/04/12 00:08:59;;;;;;;11.15;2.45;;;;;;;;;;5025879;28;20041;-67
2023/04/12 00:11:27;;;;;;;9.18;2.33;;;;;;;;;;5026170;28;20720;-70
2023/04/12 00:13:53;;;;;;;7.60;2.10;;;;;;;;;;5025450;28;20440;-69
2023/04/12 00:16:19;;;;;;;12.10;2.78;;;;;;;;;;5026307;28;20073;-70
2023/04/12 00:18:46;;;;;;;8.65;1.90;;;;;;;;;;5026111;28;20070;-69
2023/04/12 00:21:12;;;;;;;12.23;1.75;;;;;;;;;;5026091;28;20049;-69
2023/04/12 00:23:38;;;;;;;9.75;2.15;;;;;;;;;;5026165;28;20509;-68
2023/04/12 00:26:04;;;;;;;8.38;3.03;;;;;;;;;;5026293;28;20450;-69
2023/04/12 00:28:31;;;;;;;7.75;2.10;;;;;;;;;;5025376;28;20029;-69
2023/04/12 00:30:57;;;;;;;12.57;1.77;;;;;;;;;;5025407;28;20041;-69
2023/04/12 00:33:23;;;;;;;8.02;2.13;;;;;;;;;;5026015;28;20049;-69
2023/04/12 00:35:49;;;;;;;9.65;2.40;;;;;;;;;;5031057;28;20068;-69
2023/04/12 00:38:16;;;;;;;8.40;2.45;;;;;;;;;;5045728;28;20043;-69
2023/04/12 00:40:42;;;;;;;11.98;2.30;;;;;;;;;;5045793;28;20048;-69
2023/04/12 00:43:14;;;;;;;7.88;2.00;;;;;;;;;;5044541;28;20090;-67
2023/04/12 00:45:40;;;;;;;7.70;1.85;;;;;;;;;;5045757;28;20072;-69
2023/04/12 00:48:07;;;;;;;13.68;2.97;;;;;;;;;;5045385;28;20048;-69
2023/04/12 00:50:34;;;;;;;13.75;2.50;;;;;;;;;;5045107;28;20052;-69
2023/04/12 00:53:02;;;;;;;7.80;1.85;;;;;;;;;;5045291;28;20048;-69
2023/04/12 00:55:28;;;;;;;5.82;1.42;;;;;;;;;;5045724;28;20048;-69
2023/04/12 00:57:54;;;;;;;9.27;2.28;;;;;;;;;;5044554;28;20111;-69
2023/04/12 01:00:21;;;;;;;5.15;1.60;;;;;;;;;;5045065;28;20041;-68
2023/04/12 01:02:49;;;;;;;4.32;1.70;;;;;;;;;;5045291;28;20399;-65
2023/04/12 01:05:20;;;;;;;6.88;1.60;;;;;;;;;;5045474;28;20075;-68
2023/04/12 01:08:05;;;;;;;11.60;1.55;;;;;;;;;;5044571;28;20128;-68
2023/04/12 01:10:43;;;;;;;8.55;1.67;;;;;;;;;;5043984;28;20056;-68
2023/04/12 01:16:08;;;;;;;10.40;1.77;;;;;;;;;;4986438;26;20474;-59
2023/04/12 01:18:39;;;;;;;9.82;2.08;;;;;;;;;;5002727;28;20042;-59
2023/04/12 01:21:08;;;;;;;10.80;1.98;;;;;;;;;;4997624;28;20070;-59
2023/04/12 01:23:57;;;;;;;6.65;1.60;;;;;;;;;;4995977;28;20046;-59
2023/04/12 01:26:31;;;;;;;13.77;2.17;;;;;;;;;;4992613;28;20634;-59
2023/04/12 01:28:58;;;;;;;12.65;2.40;;;;;;;;;;5004716;28;20053;-59
2023/04/12 01:31:26;;;;;;;9.70;2.80;;;;;;;;;;5005042;28;20220;-59
2023/04/12 01:33:53;;;;;;;10.15;2.13;;;;;;;;;;5035979;28;20042;-59
2023/04/12 01:36:22;;;;;;;7.03;2.27;;;;;;;;;;5004665;28;20495;-59
2023/04/12 01:38:49;;;;;;;11.77;2.10;;;;;;;;;;5004583;28;20879;-60
2023/04/12 01:41:15;;;;;;;7.60;2.30;;;;;;;;;;4996705;28;20046;-59
2023/04/12 01:43:42;;;;;;;8.23;1.45;;;;;;;;;;5004573;28;20044;-59
2023/04/12 01:46:08;;;;;;;9.70;1.70;;;;;;;;;;5004349;28;20084;-59
2023/04/12 01:48:35;;;;;;;8.45;1.80;;;;;;;;;;5004618;28;20053;-59
2023/04/12 01:51:05;;;;;;;9.95;1.95;;;;;;;;;;5004845;28;20038;-59
2023/04/12 01:53:38;;;;;;;7.32;1.83;;;;;;;;;;5004936;28;20052;-60
2023/04/12 01:56:07;;;;;;;4.05;1.65;;;;;;;;;;5004718;28;20042;-59
2023/04/12 01:58:33;;;;;;;10.43;1.50;;;;;;;;;;5003866;28;20491;-60
2023/04/12 02:01:00;;;;;;;5.78;1.35;;;;;;;;;;5035909;28;20060;-60
2023/04/12 02:03:29;;;;;;;9.13;2.05;;;;;;;;;;5004430;28;20112;-61
2023/04/12 02:05:56;;;;;;;8.48;1.85;;;;;;;;;;5004523;28;20069;-60
2023/04/12 02:08:23;;;;;;;10.02;2.10;;;;;;;;;;5004830;28;20046;-60
2023/04/12 02:10:50;;;;;;;7.72;1.38;;;;;;;;;;5004048;28;20048;-61
2023/04/12 02:13:17;;;;;;;6.25;1.50;;;;;;;;;;5003960;28;20113;-59
2023/04/12 02:15:44;;;;;;;14.50;1.90;;;;;;;;;;5003976;28;20089;-59
2023/04/12 02:18:12;;;;;;;7.05;1.60;;;;;;;;;;5003633;28;20057;-60
2023/04/12 02:20:39;;;;;;;8.90;1.60;;;;;;;;;;5004527;28;20045;-59
2023/04/12 02:23:05;;;;;;;6.65;1.40;;;;;;;;;;5003766;28;20053;-59
2023/04/12 02:25:32;;;;;;;9.52;1.70;;;;;;;;;;5004250;28;20084;-59
2023/04/12 02:27:58;;;;;;;7.55;1.92;;;;;;;;;;5003827;28;20060;-62
2023/04/12 02:30:24;;;;;;;7.80;2.42;;;;;;;;;;5036355;28;20042;-59
2023/04/12 02:32:52;;;;;;;8.77;1.73;;;;;;;;;;5003904;28;20049;-60
2023/04/12 02:35:18;;;;;;;6.85;1.90;;;;;;;;;;5004295;28;20718;-60
2023/04/12 02:37:46;;;;;;;7.75;1.60;;;;;;;;;;5004460;28;20053;-60
2023/04/12 02:40:14;;;;;;;6.57;1.30;;;;;;;;;;5003661;28;20043;-60
2023/04/12 02:42:41;;;;;;;4.45;1.73;;;;;;;;;;5003071;28;20046;-60
2023/04/12 02:45:08;;;;;;;8.57;1.23;;;;;;;;;;5004178;28;20421;-59
2023/04/12 02:47:34;;;;;;;5.72;1.40;;;;;;;;;;5004328;28;20046;-59
2023/04/12 02:50:01;;;;;;;5.72;1.50;;;;;;;;;;5035663;28;20049;-60
2023/04/12 02:52:28;;;;;;;5.93;1.35;;;;;;;;;;5004377;28;20495;-59
2023/04/12 02:54:55;;;;;;;11.95;1.30;;;;;;;;;;5004000;28;20089;-59
2023/04/12 02:57:22;;;;;;;7.13;1.30;;;;;;;;;;5003383;28;20045;-59
2023/04/12 02:59:51;;;;;;;6.63;1.80;;;;;;;;;;5003462;28;20058;-60
2023/04/12 03:02:18;;;;;;;3.45;1.00;;;;;;;;;;5003761;28;20037;-58
2023/04/12 03:04:46;;;;;;;5.80;1.20;;;;;;;;;;5004249;28;20506;-58
2023/04/12 03:07:13;;;;;;;7.10;1.25;;;;;;;;;;5003802;28;20046;-59
2023/04/12 03:09:41;;;;;;;5.85;1.38;;;;;;;;;;5004125;28;20107;-59
2023/04/12 03:12:07;;;;;;;11.20;1.55;;;;;;;;;;5003255;28;20078;-58
2023/04/12 03:14:33;;;;;;;3.70;1.15;;;;;;;;;;5003947;28;20064;-59
2023/04/12 03:17:00;;;;;;;10.50;1.77;;;;;;;;;;5002003;28;20456;-60
2023/04/12 03:19:27;;;;;;;6.25;1.10;;;;;;;;;;5004432;28;20065;-59
2023/04/12 03:21:53;;;;;;;8.83;2.27;;;;;;;;;;5003578;28;20038;-59
2023/04/12 03:24:20;;;;;;;5.88;1.15;;;;;;;;;;5003823;28;20042;-59
2023/04/12 03:26:46;;;;;;;6.03;1.13;;;;;;;;;;5035286;28;20739;-59
2023/04/12 03:29:12;;;;;;;5.35;1.30;;;;;;;;;;5003522;28;20042;-59
2023/04/12 03:31:38;;;;;;;6.32;1.38;;;;;;;;;;5035618;28;20523;-61
2023/04/12 03:34:05;;;;;;;3.90;1.25;;;;;;;;;;5007155;28;20153;-60
2023/04/12 03:36:31;;;;;;;8.63;1.27;;;;;;;;;;5007271;28;20045;-59
2023/04/12 03:38:58;;;;;;;7.22;1.65;;;;;;;;;;5006989;28;20048;-59
2023/04/12 03:41:25;;;;;;;4.55;0.95;;;;;;;;;;5006698;28;20104;-61
2023/04/12 03:43:51;;;;;;;3.60;1.60;;;;;;;;;;5038603;28;20054;-59
2023/04/12 03:46:18;;;;;;;5.95;1.23;;;;;;;;;;5006536;28;20531;-59
2023/04/12 03:48:44;;;;;;;4.53;1.23;;;;;;;;;;5006968;28;20116;-60
2023/04/12 03:51:11;;;;;;;5.53;1.30;;;;;;;;;;5006326;28;20041;-61
2023/04/12 03:53:37;;;;;;;5.60;1.30;;;;;;;;;;5006772;28;20048;-61
2023/04/12 03:56:04;;;;;;;8.95;2.58;;;;;;;;;;5006049;28;20484;-61
2023/04/12 03:58:32;;;;;;;5.57;1.33;;;;;;;;;;5005710;28;20045;-62
2023/04/12 04:01:00;;;;;;;6.85;1.33;;;;;;;;;;5006513;28;20440;-62
2023/04/12 04:03:28;;;;;;;6.97;1.70;;;;;;;;;;5006885;28;20045;-61
2023/04/12 04:05:55;;;;;;;5.38;1.23;;;;;;;;;;5006776;28;20319;-61
2023/04/12 04:08:21;;;;;;;7.72;1.80;;;;;;;;;;5006261;28;20037;-61
2023/04/12 04:10:47;;;;;;;3.35;1.40;;;;;;;;;;5006205;28;20377;-63
2023/04/12 04:13:13;;;;;;;5.72;1.42;;;;;;;;;;5005969;28;20188;-62
2023/04/12 04:15:39;;;;;;;5.38;1.95;;;;;;;;;;5005461;28;20096;-62
2023/04/12 04:18:05;;;;;;;7.35;1.95;;;;;;;;;;5005879;28;20077;-61
2023/04/12 04:20:32;;;;;;;8.70;1.77;;;;;;;;;;5006475;28;20037;-61
2023/04/12 04:22:59;;;;;;;7.93;1.83;;;;;;;;;;5005850;28;20042;-60
2023/04/12 04:25:28;;;;;;;9.10;1.60;;;;;;;;;;5006428;28;20499;-61
2023/04/12 04:27:55;;;;;;;8.35;1.70;;;;;;;;;;5005640;28;20095;-62
2023/04/12 04:30:22;;;;;;;4.97;1.90;;;;;;;;;;5006382;28;20476;-61
2023/04/12 04:32:48;;;;;;;6.07;1.50;;;;;;;;;;5005322;28;20084;-62
2023/04/12 04:35:16;;;;;;;5.38;1.95;;;;;;;;;;5005768;28;20054;-62
2023/04/12 04:37:42;;;;;;;9.57;1.60;;;;;;;;;;5005806;28;20475;-61
2023/04/12 04:40:11;;;;;;;5.68;1.50;;;;;;;;;;5005792;28;20507;-61
2023/04/12 04:42:38;;;;;;;6.85;1.88;;;;;;;;;;5037164;28;20100;-60
2023/04/12 04:45:11;;;;;;;7.43;1.70;;;;;;;;;;5004658;28;20133;-60
2023/04/12 04:47:38;;;;;;;7.65;1.65;;;;;;;;;;5005927;28;20512;-60
2023/04/12 04:50:05;;;;;;;10.38;1.90;;;;;;;;;;5004838;28;20117;-61
2023/04/12 04:52:31;;;;;;;5.30;1.85;;;;;;;;;;5003200;28;20077;-60
2023/04/12 04:54:57;;;;;;;4.60;1.45;;;;;;;;;;5001962;28;20088;-60
2023/04/12 04:57:25;;;;;;;5.38;1.85;;;;;;;;;;5005064;28;20050;-61
2023/04/12 04:59:51;;;;;;;7.78;2.00;;;;;;;;;;5005186;28;20093;-61
2023/04/12 05:02:17;;;;;;;8.63;2.85;;;;;;;;;;5005531;28;20057;-59
2023/04/12 05:04:44;;;;;;;13.30;2.10;;;;;;;;;;5005303;28;20049;-59
2023/04/12 05:07:12;;;;;;;6.55;1.85;;;;;;;;;;5003775;28;20029;-60
2023/04/12 05:09:38;;;;;;;11.30;2.45;;;;;;;;;;5002095;28;20058;-61
2023/04/12 05:12:04;;;;;;;12.73;6.85;;;;;;;;;;5005214;28;20443;-60
2023/04/12 05:14:31;;;;;;;7.07;1.98;;;;;;;;;;5005591;28;20084;-59
2023/04/12 05:16:57;;;;;;;8.43;3.08;;;;;;;;;;5006242;28;20384;-60
2023/04/12 05:19:24;;;;;;;9.25;5.43;;;;;;;;;;5006388;28;20045;-60
2023/04/12 05:21:50;;;;;;;9.57;2.20;;;;;;;;;;5005856;28;20038;-60
2023/04/12 05:24:16;;;;;;;5.15;2.13;;;;;;;;;;5006111;28;20077;-59
2023/04/12 05:26:42;;;;;;;7.85;3.15;;;;;;;;;;5004671;28;20045;-61
2023/04/12 05:29:09;;;;;;;6.60;1.85;;;;;;;;;;5004941;28;20132;-59
2023/04/12 05:31:35;;;;;;;6.55;1.88;;;;;;;;;;5003731;28;20038;-59
2023/04/12 05:34:01;;;;;;;6.75;3.60;;;;;;;;;;4996410;28;20099;-59
2023/04/12 05:36:27;;;;;;;7.00;1.80;;;;;;;;;;5005997;28;20121;-59
2023/04/12 05:38:53;;;;;;;31.08;27.75;;;;;;;;;;5036747;28;20084;-59
2023/04/12 05:41:20;;;;;;;8.50;2.10;;;;;;;;;;5004157;28;20073;-59
2023/04/12 05:43:46;;;;;;;12.90;8.52;;;;;;;;;;5005122;28;20092;-59
2023/04/12 05:46:13;;;;;;;7.65;2.63;;;;;;;;;;5007262;28;20402;-59
2023/04/12 05:48:39;;;;;;;31.98;19.92;;;;;;;;;;5006097;28;20057;-59
2023/04/12 05:51:05;;;;;;;6.40;1.83;;;;;;;;;;5004324;28;20049;-59
2023/04/12 05:53:31;;;;;;;6.78;1.83;;;;;;;;;;5004820;28;20038;-60
2023/04/12 05:55:58;;;;;;;11.75;3.72;;;;;;;;;;5001137;28;20045;-59
2023/04/12 05:58:24;;;;;;;7.43;3.10;;;;;;;;;;5036472;28;20411;-59
2023/04/12 06:00:53;;;;;;;17.63;8.27;;;;;;;;;;4997349;28;20050;-59
2023/04/12 06:03:19;;;;;;;6.55;1.65;;;;;;;;;;5004457;28;20054;-61
2023/04/12 06:05:45;;;;;;;4.60;2.13;;;;;;;;;;5004731;28;20034;-59
2023/04/12 06:08:13;;;;;;;5.40;2.78;;;;;;;;;;4998221;28;20045;-60
2023/04/12 06:10:40;;;;;;;6.00;1.40;;;;;;;;;;5003233;28;20050;-59
2023/04/12 06:13:06;;;;;;;7.65;2.25;;;;;;;;;;5001747;28;20052;-59
2023/04/12 06:15:32;;;;;;;10.20;7.35;;;;;;;;;;5003448;28;20061;-58
2023/04/12 06:17:59;;;;;;;4.18;1.42;;;;;;;;;;5003551;28;20048;-60
2023/04/12 06:20:25;;;;;;;8.93;1.70;;;;;;;;;;5004317;28;20369;-59
2023/04/12 06:22:51;;;;;;;6.25;1.77;;;;;;;;;;5003484;28;20401;-59
2023/04/12 06:25:17;;;;;;;4.95;1.73;;;;;;;;;;5000110;28;20038;-59
2023/04/12 06:27:44;;;;;;;5.57;1.83;;;;;;;;;;5003206;28;20038;-59
2023/04/12 06:30:10;;;;;;;8.20;1.70;;;;;;;;;;5003349;28;20049;-59
2023/04/12 06:32:37;;;;;;;10.40;6.25;;;;;;;;;;5003712;28;20046;-59
2023/04/12 06:35:04;;;;;;;7.85;3.17;;;;;;;;;;5003187;28;21465;-59
2023/04/12 06:37:30;;;;;;;6.38;2.92;;;;;;;;;;5035137;28;20048;-59
2023/04/12 06:39:56;;;;;;;7.20;2.33;;;;;;;;;;5003642;28;20076;-59
2023/04/12 06:42:22;;;;;;;8.98;6.70;;;;;;;;;;5003320;28;20121;-59
2023/04/12 06:44:48;;;;;;;3.72;1.35;;;;;;;;;;5003095;28;20752;-59
2023/04/12 06:47:14;;;;;;;4.63;1.58;;;;;;;;;;4998579;28;20053;-59
2023/04/12 06:49:41;;;;;;;3.95;1.35;;;;;;;;;;5003765;28;20552;-59
2023/04/12 06:52:07;;;;;;;10.60;5.47;;;;;;;;;;5003875;28;20073;-59
2023/04/12 06:54:36;;;;;;;6.25;1.60;;;;;;;;;;5003702;28;20042;-59
2023/04/12 06:57:03;;;;;;;16.98;9.48;;;;;;;;;;5002562;28;20682;-59
2023/04/12 06:59:29;;;;;;;5.97;3.03;;;;;;;;;;5003453;28;20053;-59
2023/04/12 07:02:20;;;;;;;10.75;7.05;;;;;;;;;;5003855;28;20396;-59
2023/04/12 07:04:46;;;;;;;4.28;1.52;;;;;;;;;;5003368;28;20045;-59
2023/04/12 07:07:12;;;;;;;6.28;2.08;;;;;;;;;;5004304;28;20033;-59
2023/04/12 07:09:38;;;;;;;6.07;1.83;;;;;;;;;;5003390;28;20309;-59
2023/04/12 07:12:04;;;;;;;5.15;2.10;;;;;;;;;;5006206;28;20673;-59
2023/04/12 07:14:31;;;;;;;5.15;2.00;;;;;;;;;;5006977;28;20077;-59
2023/04/12 07:16:57;;;;;;;7.10;2.05;;;;;;;;;;5007068;28;20042;-59
2023/04/12 07:19:23;;;;;;;4.97;2.20;;;;;;;;;;5006833;28;20068;-59
2023/04/12 07:21:50;;;;;;;4.60;1.90;;;;;;;;;;5006838;28;20100;-59
2023/04/12 07:24:16;;;;;;;8.48;2.15;;;;;;;;;;5007021;28;20669;-59
2023/04/12 07:26:42;;;;;;;7.20;2.10;;;;;;;;;;5006228;28;20041;-59
2023/04/12 07:29:08;;;;;;;8.73;2.00;;;;;;;;;;5007012;28;20045;-59
2023/04/12 07:31:34;;;;;;;4.70;2.20;;;;;;;;;;5006017;28;20040;-59
2023/04/12 07:34:00;;;;;;;9.18;2.35;;;;;;;;;;5006326;28;20045;-59
2023/04/12 07:36:26;;;;;;;4.72;2.03;;;;;;;;;;5007221;28;20042;-59
2023/04/12 07:38:54;;;;;;;7.15;2.10;;;;;;;;;;5006502;28;20726;-60
2023/04/12 07:41:21;;;;;;;4.03;1.92;;;;;;;;;;5006135;28;20052;-59
2023/04/12 07:43:47;;;;;;;5.70;2.33;;;;;;;;;;5006165;28;20041;-60
2023/04/12 07:46:13;;;;;;;6.05;2.75;;;;;;;;;;5005936;28;20117;-58
2023/04/12 07:48:39;;;;;;;4.88;2.10;;;;;;;;;;5002744;28;20121;-60
2023/04/12 07:51:06;;;;;;;6.13;2.25;;;;;;;;;;5006480;28;20049;-59
2023/04/12 07:53:32;;;;;;;9.60;2.47;;;;;;;;;;5006461;28;20046;-59
2023/04/12 07:55:58;;;;;;;5.38;2.25;;;;;;;;;;5005698;28;20482;-58
2023/04/12 07:58:24;;;;;;;5.32;2.47;;;;;;;;;;5006843;28;20518;-59
2023/04/12 08:00:51;;;;;;;4.18;2.45;;;;;;;;;;5038107;28;20699;-59
2023/04/12 08:03:17;;;;;;;5.32;2.22;;;;;;;;;;5006200;28;20052;-58
2023/04/12 08:05:44;;;;;;;4.97;2.83;;;;;;;;;;5006462;28;20038;-59
2023/04/12 08:08:10;;;;;;;5.53;2.33;;;;;;;;;;5006221;28;20112;-59
2023/04/12 08:10:37;;;;;;;3.28;2.35;;;;;;;;;;5005779;28;20034;-59
2023/04/12 08:13:04;;;;;;;6.05;2.60;;;;;;;;;;5005002;28;20046;-59
2023/04/12 08:15:30;;;;;;;9.93;2.95;;;;;;;;;;5005467;28;20054;-59
2023/04/12 08:17:57;;;;;;;5.20;2.78;;;;;;;;;;5006122;28;20046;-59
2023/04/12 08:20:23;;;;;;;5.57;2.80;;;;;;;;;;5005934;28;20049;-59
2023/04/12 08:22:51;;;;;;;8.18;3.38;;;;;;;;;;5005832;28;20050;-60
2023/04/12 08:25:17;;;;;;;4.93;3.03;;;;;;;;;;5006011;28;20407;-59
2023/04/12 08:27:43;;;;;;;6.32;2.97;;;;;;;;;;5005156;28;20277;-59
2023/04/12 08:30:10;;;;;;;3.63;2.85;;;;;;;;;;5005562;28;20388;-59
2023/04/12 08:32:36;;;;;;;5.00;2.83;;;;;;;;;;5005885;28;20398;-59
2023/04/12 08:35:03;;;;;;;6.32;3.28;;;;;;;;;;5005616;28;20132;-59
2023/04/12 08:37:29;;;;;;;5.82;3.72;;;;;;;;;;5005367;28;20074;-59
2023/04/12 08:39:55;;;;;;;5.45;3.22;;;;;;;;;;5005469;28;20037;-59
2023/04/12 08:42:21;;;;;;;4.97;3.47;;;;;;;;;;5004787;28;20041;-58
2023/04/12 08:44:50;;;;;;;4.78;3.50;;;;;;;;;;5005500;28;20045;-62
2023/04/12 08:47:16;;;;;;;6.20;3.72;;;;;;;;;;5005803;28;20490;-59
2023/04/12 08:49:42;;;;;;;8.05;4.20;;;;;;;;;;5005215;28;20033;-59
2023/04/12 08:52:10;;;;;;;4.75;3.53;;;;;;;;;;5005218;28;20057;-60
2023/04/12 08:54:36;;;;;;;5.55;4.25;;;;;;;;;;5005162;28;20044;-59
2023/04/12 08:57:03;;;;;;;5.97;4.40;;;;;;;;;;5004337;28;20046;-59
2023/04/12 08:59:30;;;;;;;7.18;4.50;;;;;;;;;;5005060;28;20164;-59
2023/04/12 09:01:57;;;;;;;11.18;5.50;;;;;;;;;;5005343;28;20038;-59
2023/04/12 09:04:25;;;;;;;7.78;5.05;;;;;;;;;;5005015;28;20723;-59
2023/04/12 09:06:51;;;;;;;7.90;5.68;;;;;;;;;;5000930;28;20033;-59
2023/04/12 09:09:18;;;;;;;7.63;5.28;;;;;;;;;;5004716;28;20415;-59
2023/04/12 09:11:44;;;;;;;9.85;6.10;;;;;;;;;;5004355;28;20038;-59
2023/04/12 09:14:20;;;;;;;7.97;5.05;;;;;;;;;;5004335;28;20069;-60
2023/04/12 09:16:47;;;;;;;8.98;5.85;;;;;;;;;;5005199;28;20667;-62
2023/04/12 09:19:13;;;;;;;9.30;5.43;;;;;;;;;;5005115;28;20045;-59
2023/04/12 09:21:52;;;;;;;13.23;5.90;;;;;;;;;;5004842;28;20054;-59
2023/04/12 09:24:22;;;;;;;9.38;6.00;;;;;;;;;;5004305;28;20046;-60
2023/04/12 09:26:49;;;;;;;6.47;5.15;;;;;;;;;;5004109;28;20073;-59
2023/04/12 09:29:24;;;;;;;10.52;5.35;;;;;;;;;;5004641;28;20048;-58
2023/04/12 09:31:55;;;;;;;6.90;5.55;;;;;;;;;;5035832;28;20124;-59
2023/04/12 09:34:21;;;;;;;7.85;5.28;;;;;;;;;;5003057;28;20038;-59
2023/04/12 09:36:47;;;;;;;8.23;5.28;;;;;;;;;;5004598;28;20042;-60
2023/04/12 09:39:14;;;;;;;7.60;5.00;;;;;;;;;;5004813;28;20046;-59
2023/04/12 09:41:40;;;;;;;7.70;5.50;;;;;;;;;;5003833;28;20441;-59
2023/04/12 09:44:06;;;;;;;6.25;5.45;;;;;;;;;;5004004;28;20072;-59
2023/04/12 09:46:33;;;;;;;7.13;5.10;;;;;;;;;;5004044;28;20038;-59
2023/04/12 09:49:02;;;;;;;8.18;5.15;;;;;;;;;;5003689;28;20396;-59
2023/04/12 09:51:31;;;;;;;6.28;4.53;;;;;;;;;;5004200;28;20042;-62
2023/04/12 09:53:59;;;;;;;7.95;4.75;;;;;;;;;;5004471;28;20042;-59
2023/04/12 09:56:27;;;;;;;7.47;5.05;;;;;;;;;;5003955;28;20042;-59
2023/04/12 09:58:54;;;;;;;6.03;4.72;;;;;;;;;;5004289;28;20053;-59
2023/04/12 10:01:22;;;;;;;6.28;3.83;;;;;;;;;;5004183;28;20073;-59
2023/04/12 10:03:49;;;;;;;10.90;4.40;;;;;;;;;;5003725;28;20295;-60
2023/04/12 10:06:15;;;;;;;8.35;4.45;;;;;;;;;;5036101;28;20046;-58
2023/04/12 10:08:41;;;;;;;7.18;4.00;;;;;;;;;;5003273;28;20088;-58
2023/04/12 10:11:08;;;;;;;8.80;4.95;;;;;;;;;;5002524;28;20645;-59
2023/04/12 10:13:35;;;;;;;9.02;4.18;;;;;;;;;;5003755;28;20426;-59
2023/04/12 10:16:03;;;;;;;8.82;4.07;;;;;;;;;;5003508;28;20530;-59
2023/04/12 10:18:31;;;;;;;11.45;3.97;;;;;;;;;;5003192;28;20107;-59
2023/04/12 10:20:57;;;;;;;7.95;4.50;;;;;;;;;;4998682;28;20103;-59
2023/04/12 10:23:23;;;;;;;9.05;4.82;;;;;;;;;;5004023;28;20041;-60
2023/04/12 10:25:52;;;;;;;12.85;4.22;;;;;;;;;;5003058;28;20053;-60
2023/04/12 10:28:21;;;;;;;10.68;4.43;;;;;;;;;;5003852;28;20476;-61
2023/04/12 10:30:49;;;;;;;9.10;4.05;;;;;;;;;;5003532;28;20105;-62
2023/04/12 10:33:17;;;;;;;23.80;14.05;;;;;;;;;;5003318;28;20042;-59
2023/04/12 10:35:53;;;;;;;7.55;4.18;;;;;;;;;;5003616;28;20038;-60
2023/04/12 10:38:20;;;;;;;9.68;4.30;;;;;;;;;;5002142;28;20380;-59
2023/04/12 10:41:05;;;;;;;9.50;4.60;;;;;;;;;;5003010;28;20038;-60
2023/04/12 10:43:31;;;;;;;6.72;3.90;;;;;;;;;;5005186;28;20041;-59
2023/04/12 10:46:03;;;;;;;9.35;4.43;;;;;;;;;;5007828;28;20488;-59
2023/04/12 10:48:34;;;;;;;13.80;3.85;;;;;;;;;;5003518;28;20573;-61
2023/04/12 10:51:16;;;;;;;6.35;3.35;;;;;;;;;;5007481;28;20050;-60
2023/04/12 10:53:42;;;;;;;9.63;3.58;;;;;;;;;;5007410;28;20042;-60
2023/04/12 10:56:33;;;;;;;8.80;2.67;;;;;;;;;;5005701;28;20054;-60
2023/04/12 10:59:00;;;;;;;17.35;4.47;;;;;;;;;;5005891;28;20198;-61
2023/04/12 11:01:27;;;;;;;8.32;2.70;;;;;;;;;;5005259;28;20480;-60
2023/04/12 11:04:09;;;;;;;18.50;3.30;;;;;;;;;;5006930;28;20057;-61
2023/04/12 11:06:55;;;;;;;7.93;2.78;;;;;;;;;;5007048;28;20049;-62
2023/04/12 11:09:24;;;;;;;10.55;3.80;;;;;;;;;;5037155;28;20451;-62
2023/04/12 11:11:51;;;;;;;13.55;3.03;;;;;;;;;;5005386;28;20038;-62
2023/04/12 11:14:17;;;;;;;9.50;4.03;;;;;;;;;;5006973;28;20136;-61
2023/04/12 11:17:02;;;;;;;10.27;2.35;;;;;;;;;;5006964;28;20049;-61
2023/04/12 11:19:30;;;;;;;14.23;3.83;;;;;;;;;;5004602;28;20041;-63
2023/04/12 11:21:56;;;;;;;11.20;2.37;;;;;;;;;;5003341;28;20102;-62
2023/04/12 11:24:22;;;;;;;9.82;2.17;;;;;;;;;;5006515;28;20072;-62
2023/04/12 11:26:49;;;;;;;12.73;2.45;;;;;;;;;;5005555;28;20120;-63
2023/04/12 11:29:22;;;;;;;12.15;2.40;;;;;;;;;;5006873;28;20041;-62
2023/04/12 11:31:49;;;;;;;11.65;2.13;;;;;;;;;;5038030;28;20614;-63
2023/04/12 11:34:21;;;;;;;8.00;1.65;;;;;;;;;;5006758;28;20099;-62
2023/04/12 11:36:52;;;;;;;7.18;2.00;;;;;;;;;;5006265;28;20045;-63
2023/04/12 11:39:20;;;;;;;8.15;1.80;;;;;;;;;;5005196;28;20096;-62
2023/04/12 11:41:46;;;;;;;11.93;2.20;;;;;;;;;;5005830;28;20044;-62
2023/04/12 11:44:14;;;;;;;10.90;2.20;;;;;;;;;;5006309;28;20049;-62
2023/04/12 11:46:40;;;;;;;12.65;1.98;;;;;;;;;;5006669;28;20042;-62
2023/04/12 11:49:06;;;;;;;13.75;2.15;;;;;;;;;;5006346;28;20133;-62
2023/04/12 11:51:34;;;;;;;11.52;1.55;;;;;;;;;;5006139;28;20049;-62
2023/04/12 11:54:00;;;;;;;14.93;3.10;;;;;;;;;;5005454;28;20503;-62
2023/04/12 11:56:28;;;;;;;17.02;2.35;;;;;;;;;;5005338;28;20458;-62
2023/04/12 11:58:54;;;;;;;14.70;2.05;;;;;;;;;;5006606;28;20038;-62
2023/04/12 12:01:22;;;;;;;18.17;2.35;;;;;;;;;;5006354;28;20484;-61
2023/04/12 12:03:48;;;;;;;18.70;2.17;;;;;;;;;;5006036;28;20148;-63
2023/04/12 12:06:15;;;;;;;11.55;1.95;;;;;;;;;;5006448;28;20076;-62
2023/04/12 12:08:41;;;;;;;12.27;1.88;;;;;;;;;;5005717;28;20042;-62
2023/04/12 12:11:07;;;;;;;13.18;1.85;;;;;;;;;;5005019;28;20038;-62
2023/04/12 12:13:43;;;;;;;15.45;2.15;;;;;;;;;;5006497;28;20511;-63
2023/04/12 12:16:11;;;;;;;15.27;2.17;;;;;;;;;;5002161;28;20065;-63
2023/04/12 12:18:39;;;;;;;13.48;1.77;;;;;;;;;;5002093;28;20121;-62
2023/04/12 12:21:08;;;;;;;15.68;2.08;;;;;;;;;;5006020;28;20058;-62
2023/04/12 12:23:35;;;;;;;15.07;1.58;;;;;;;;;;5005685;28;20049;-63
2023/04/12 12:26:02;;;;;;;8.40;1.27;;;;;;;;;;5004844;28;20049;-62
2023/04/12 12:28:29;;;;;;;17.53;1.50;;;;;;;;;;5002339;28;20109;-63
2023/04/12 12:30:56;;;;;;;19.27;1.70;;;;;;;;;;5005664;28;20289;-62
2023/04/12 12:33:23;;;;;;;8.52;1.50;;;;;;;;;;5005729;28;20046;-62
2023/04/12 12:35:56;;;;;;;11.30;2.72;;;;;;;;;;5005302;28;20046;-63
2023/04/12 12:38:22;;;;;;;11.38;1.42;;;;;;;;;;5004835;28;20385;-62
2023/04/12 12:40:48;;;;;;;9.68;1.23;;;;;;;;;;5004712;28;20049;-63
2023/04/12 12:43:19;;;;;;;11.52;1.65;;;;;;;;;;5005337;28;20072;-62
2023/04/12 12:45:45;;;;;;;6.75;1.10;;;;;;;;;;5005234;28;20069;-62
2023/04/12 12:48:12;;;;;;;5.93;0.93;;;;;;;;;;5005287;28;20042;-63
2023/04/12 12:50:39;;;;;;;12.18;1.20;;;;;;;;;;5005299;28;20042;-63
2023/04/12 12:53:05;;;;;;;9.00;0.90;;;;;;;;;;5005048;28;20038;-62
2023/04/12 12:55:31;;;;;;;9.52;1.35;;;;;;;;;;5004573;28;20158;-63
2023/04/12 12:57:58;;;;;;;14.43;1.55;;;;;;;;;;5005291;28;20037;-62
2023/04/12 13:00:25;;;;;;;10.90;1.52;;;;;;;;;;5037089;28;20054;-62
2023/04/12 13:02:52;;;;;;;6.32;1.23;;;;;;;;;;5004536;28;20046;-62
2023/04/12 13:05:18;;;;;;;12.70;1.63;;;;;;;;;;5003871;28;20830;-62
2023/04/12 13:07:45;;;;;;;9.82;2.15;;;;;;;;;;5005163;28;20065;-62
2023/04/12 13:10:11;;;;;;;7.95;1.30;;;;;;;;;;5003724;28;20070;-62
2023/04/12 13:12:37;;;;;;;14.48;1.60;;;;;;;;;;5004882;28;20046;-62
2023/04/12 13:15:04;;;;;;;7.45;1.20;;;;;;;;;;5003925;28;20064;-62
2023/04/12 13:17:31;;;;;;;10.57;1.83;;;;;;;;;;5004952;28;20046;-63
2023/04/12 13:19:57;;;;;;;7.93;1.48;;;;;;;;;;5001192;28;20716;-62
2023/04/12 13:22:24;;;;;;;16.33;2.63;;;;;;;;;;5005036;28;20053;-62
2023/04/12 13:24:50;;;;;;;11.82;1.42;;;;;;;;;;5003654;28;20046;-63
2023/04/12 13:27:16;;;;;;;13.95;1.70;;;;;;;;;;5004692;28;20108;-62
2023/04/12 13:29:43;;;;;;;8.50;1.67;;;;;;;;;;5003905;28;20459;-62
2023/04/12 13:32:09;;;;;;;7.13;1.25;;;;;;;;;;5004019;28;20050;-62
2023/04/12 13:34:35;;;;;;;9.07;1.27;;;;;;;;;;5004955;28;20088;-63
2023/04/12 13:37:02;;;;;;;9.60;1.48;;;;;;;;;;5000411;28;20121;-63
2023/04/12 13:39:28;;;;;;;11.18;1.10;;;;;;;;;;5004627;28;20045;-62
2023/04/12 13:41:54;;;;;;;9.73;1.67;;;;;;;;;;5003786;28;20049;-62
2023/04/12 13:44:21;;;;;;;11.50;1.98;;;;;;;;;;5004411;28;20135;-62
2023/04/12 13:46:47;;;;;;;12.07;1.63;;;;;;;;;;5004163;28;20195;-63
2023/04/12 13:49:13;;;;;;;6.40;1.23;;;;;;;;;;5004286;28;20046;-62
2023/04/12 13:51:39;;;;;;;10.27;1.45;;;;;;;;;;5004233;28;20796;-62
2023/04/12 13:54:05;;;;;;;8.38;1.33;;;;;;;;;;5003780;28;20404;-62
2023/04/12 13:56:31;;;;;;;3.88;0.55;;;;;;;;;;5003455;28;20045;-63
2023/04/12 13:58:58;;;;;;;6.18;1.35;;;;;;;;;;5004462;28;20045;-63
2023/04/12 14:01:24;;;;;;;8.45;0.95;;;;;;;;;;5004334;28;20038;-62
2023/04/12 14:03:52;;;;;;;6.93;0.80;;;;;;;;;;5003593;28;20141;-63
2023/04/12 14:06:18;;;;;;;9.93;1.40;;;;;;;;;;5000609;28;20722;-62
2023/04/12 14:08:45;;;;;;;11.98;1.48;;;;;;;;;;5003765;28;20041;-62
2023/04/12 14:11:11;;;;;;;7.97;1.20;;;;;;;;;;5003148;28;20104;-62
2023/04/12 14:13:37;;;;;;;7.97;1.63;;;;;;;;;;5003882;28;20049;-62
2023/04/12 14:16:04;;;;;;;6.90;0.98;;;;;;;;;;5003151;28;20192;-62
2023/04/12 14:18:30;;;;;;;3.67;0.50;;;;;;;;;;5004078;28;20042;-63
2023/04/12 14:20:58;;;;;;;6.53;0.85;;;;;;;;;;5003892;28;20494;-62
2023/04/12 14:23:25;;;;;;;5.17;0.80;;;;;;;;;;5004117;28;20045;-62
2023/04/12 14:25:51;;;;;;;6.65;0.90;;;;;;;;;;5003153;28;20296;-62
2023/04/12 14:28:20;;;;;;;5.00;0.85;;;;;;;;;;5004033;28;20064;-62
2023/04/12 14:30:49;;;;;;;8.98;0.93;;;;;;;;;;5003945;28;20172;-62
2023/04/12 14:33:16;;;;;;;5.13;0.73;;;;;;;;;;5004031;28;20467;-62
2023/04/12 14:35:42;;;;;;;8.93;1.10;;;;;;;;;;4999771;28;20069;-62
2023/04/12 14:38:08;;;;;;;9.55;0.88;;;;;;;;;;5003875;28;20046;-62
2023/04/12 14:40:35;;;;;;;7.50;0.70;;;;;;;;;;5003200;28;20049;-62
2023/04/12 14:43:01;;;;;;;12.13;1.05;;;;;;;;;;5003435;28;20403;-62
2023/04/12 14:45:27;;;;;;;5.30;0.90;;;;;;;;;;5003637;28;20419;-62